Terminal Aerodrome Forecast
Issued by NWS

Home | Current Version | Previous Version | Text Only | Print | Product List | Glossary On
Versions: 1 2 3 4 5 6 7 8 9 10 11 12 13 14 15
000
FTUS43 KDLH 301127
TAFHIB
TAF
KHIB 301127Z 3012/0112 03004KT P6SM SKC
     FM301400 08015KT P6SM SKC
     FM301700 08012G22KT P6SM SCT050
     FM010200 09006KT P6SM SKC=

USA.gov is the U.S. government's official web portal to all federal, state and local government web resources and services.